Aeroporto :
LOGIN :

Iscrizione | Disclaimer

   EN    FR    IT 

 










Sommario :    VFR   VFR Marginale   IFR   IFR Intensivo   IFR Molto Intensivo
Visibilità : 
Base nubi : 
>= 8 km
>= 3000ft
5 / 8 km
1000 / 3000 ft
1500m / 5 km
500 / 1000 ft
800 / 1500m
200 / 500 ft
< 800m
< 200 ft
Simboli :   Temporali  Nebbia  Neve Forte  Precipitazioni Forti  Vento > 20 kt
SIGMETs :   Varie  Temporali  Ghiacco  Turbolenza  Onda orograficha  Ceneri Vulcaniche






- Altitudine del aeroporto : 443 ft
- Codice IATA : SQQ


EYSA - Siauliai

ULTIMO METAR :
  • 210520Z 25019KT 9999 OVC006 05/04 Q1023 R14L/19//95 R14R/19//95 YLO NOSIG

METARs OBSOLETI :
  • 210450Z 24016G26KT 9999 OVC006 05/04 Q1023 R14L/19//95 R14R/19//95 YLO NOSIG
  • 210420Z 25017KT 8000 OVC004 05/04 Q1023 R14L/19//95 R14R/19//95 YLO NOSIG
  • 210350Z 25019KT 7000 OVC005 05/04 Q1024 R14L/19//95 R14R/19//95 YLO NOSIG
  • 210320Z 25018G28KT 9999 OVC006 05/04 Q1024 R14L/19//95 R14R/19//95 YLO NOSIG
  • 210250Z 25017G28KT 9999 OVC006 05/04 Q1024 R14L/19//95 R14R/19//95 YLO NOSIG
  • 210220Z AUTO 25019KT 9999NDV OVC006 05/04 Q1025 R14L/19//95 R14R/19//95

TAF TAF EYSA
Valido dal 21 a 03 ore il 21 a 12 ore UTC


210200Z 2103/2112 26020G30KT 5000 BR OVC005
TEMPO 2103/2112 1000 DZ OVC003



MetMap, La meteo Aeronautica in un colpo d'occhio ! - Copyright ORBIFLY Dicembre 2007 - Disclaimer

ORBIFLY MET'MAP TEAM :

Programmazione e sviluppo : Alexandra Zaïnal
Concezione : Baudouin d'Aumeries
Aiuto per la programmazione : Marc-Olivier Méhu
Supporto tecnico e logistico : Manuel Goepfert
Aiuto per la traduzione : Arnaldo La Scala

Contatto : metmap@orbifly.com




FONTI E CREDITI :

   NOAA